createdAt,value
2023-07-03T00:00:07.956Z,10.52
2023-07-03T00:05:08.269Z,13.57
2023-07-03T00:10:08.324Z,11.02
2023-07-03T00:15:08.327Z,10.15
2023-07-03T00:20:08.317Z,10.00
2023-07-03T00:25:08.613Z,8.25
2023-07-03T00:30:08.595Z,9.90
2023-07-03T00:35:08.624Z,10.82
2023-07-03T00:40:08.658Z,9.82
2023-07-03T00:45:08.680Z,9.20
2023-07-03T00:50:08.714Z,9.93
2023-07-03T00:55:08.713Z,9.55
2023-07-03T01:00:08.704Z,7.32
2023-07-03T01:05:09.046Z,9.95
2023-07-03T01:10:08.118Z,10.00
2023-07-03T01:15:08.096Z,12.63
2023-07-03T01:20:08.172Z,10.95
2023-07-03T01:25:08.121Z,12.57
2023-07-03T01:30:08.130Z,12.70
2023-07-03T01:35:08.166Z,9.70
2023-07-03T01:40:08.157Z,12.32
2023-07-03T01:45:08.143Z,10.15
2023-07-03T01:50:08.147Z,8.73
2023-07-03T01:55:08.114Z,8.23
2023-07-03T02:00:08.089Z,11.90
2023-07-03T02:05:08.043Z,8.07
2023-07-03T02:10:08.038Z,10.15
2023-07-03T02:15:08.055Z,6.28
2023-07-03T02:20:08.064Z,12.02
2023-07-03T02:25:08.028Z,8.43
2023-07-03T02:30:08.008Z,14.73
2023-07-03T02:35:07.987Z,9.00
2023-07-03T02:40:08.094Z,6.82
2023-07-03T02:45:08.070Z,11.90
2023-07-03T02:50:08.120Z,8.80
2023-07-03T02:55:08.150Z,12.88
2023-07-03T03:00:08.147Z,15.00
2023-07-03T03:05:08.097Z,11.93
2023-07-03T03:10:08.068Z,12.45
2023-07-03T03:15:08.086Z,9.90
2023-07-03T03:20:08.131Z,11.77
2023-07-03T03:25:08.090Z,12.57
2023-07-03T03:30:08.051Z,11.63
2023-07-03T03:35:08.053Z,16.88
2023-07-03T03:40:08.063Z,14.38
2023-07-03T03:45:08.023Z,14.95
2023-07-03T03:50:07.978Z,9.52
2023-07-03T03:55:07.976Z,12.45
2023-07-03T04:00:07.922Z,17.83
2023-07-03T04:05:03.105Z,12.18
2023-07-03T04:10:02.261Z,16.13
2023-07-03T04:15:02.365Z,13.05
2023-07-03T04:20:02.375Z,20.58
2023-07-03T04:25:02.398Z,22.27
2023-07-03T04:30:02.458Z,13.32
2023-07-03T04:35:02.490Z,20.20
2023-07-03T04:40:02.556Z,15.93
2023-07-03T04:45:02.762Z,18.58
2023-07-03T04:50:02.778Z,16.08
2023-07-03T04:55:02.915Z,15.18
2023-07-03T05:00:02.978Z,18.80
2023-07-03T05:05:02.140Z,18.70
2023-07-03T05:10:02.313Z,19.25
2023-07-03T05:15:02.410Z,18.35
2023-07-03T05:20:02.472Z,17.20
2023-07-03T05:25:02.552Z,18.23
2023-07-03T05:30:02.696Z,12.77
2023-07-03T05:35:02.801Z,16.00
2023-07-03T05:40:02.859Z,22.65
2023-07-03T05:45:02.995Z,17.70
2023-07-03T05:50:02.068Z,17.48
2023-07-03T05:55:02.150Z,16.25
2023-07-03T06:00:07.233Z,19.63
2023-07-03T06:05:02.593Z,16.02
2023-07-03T06:10:02.738Z,17.35
2023-07-03T06:15:02.786Z,15.65
2023-07-03T06:20:06.352Z,20.65
2023-07-03T06:25:02.385Z,26.83
2023-07-03T06:30:02.459Z,15.27
2023-07-03T06:35:05.337Z,17.10
2023-07-03T06:40:02.932Z,15.98
2023-07-03T06:45:02.042Z,17.73
2023-07-03T06:50:02.078Z,16.05
2023-07-03T06:55:02.365Z,19.15
2023-07-03T07:00:02.466Z,21.02
2023-07-03T07:05:03.675Z,16.38
2023-07-03T07:10:02.340Z,19.25
2023-07-03T07:15:02.452Z,15.68
2023-07-03T07:20:02.516Z,20.60
2023-07-03T07:25:02.639Z,13.20
2023-07-03T07:30:02.816Z,18.33
2023-07-03T07:35:02.900Z,16.98
2023-07-03T07:40:03.006Z,20.40
2023-07-03T07:45:02.034Z,16.55
2023-07-03T07:50:02.095Z,15.27
2023-07-03T07:55:02.180Z,18.38
2023-07-03T08:00:02.375Z,14.18
2023-07-03T08:05:02.624Z,13.18
2023-07-03T08:10:03.041Z,15.02
2023-07-03T08:15:02.160Z,20.75
2023-07-03T08:20:02.302Z,14.93
2023-07-03T08:25:02.466Z,11.60
2023-07-03T08:30:02.565Z,14.05
2023-07-03T08:40:02.725Z,11.10
2023-07-03T08:45:03.016Z,13.77
2023-07-03T08:50:02.216Z,12.02
2023-07-03T08:55:02.267Z,16.17
2023-07-03T09:00:02.381Z,11.43
2023-07-03T09:05:02.589Z,13.63
2023-07-03T09:10:02.824Z,15.10
2023-07-03T09:15:05.390Z,21.00
2023-07-03T09:20:03.002Z,11.90
2023-07-03T09:25:02.125Z,15.95
2023-07-03T09:30:02.449Z,15.95
2023-07-03T09:35:05.911Z,9.70
2023-07-03T09:40:03.144Z,14.02
2023-07-03T09:45:02.523Z,15.55
2023-07-03T09:50:02.597Z,10.93
2023-07-03T09:55:02.775Z,7.90
2023-07-03T10:00:02.818Z,9.65
2023-07-03T10:15:06.817Z,10.23
2023-07-03T10:20:02.874Z,9.43
2023-07-03T10:25:02.993Z,8.55
2023-07-03T10:30:02.265Z,13.88
2023-07-03T10:35:02.359Z,12.68
2023-07-03T10:40:02.515Z,17.05
2023-07-03T10:45:02.662Z,8.43
2023-07-03T10:50:02.806Z,8.45
2023-07-03T10:55:02.988Z,10.52
2023-07-03T11:00:02.121Z,8.27
2023-07-03T11:05:02.187Z,6.30
2023-07-03T11:10:02.348Z,9.18
2023-07-03T11:15:02.510Z,9.90
2023-07-03T11:20:04.455Z,8.18
2023-07-03T11:25:12.556Z,0
2023-07-03T11:30:02.648Z,11.57
2023-07-03T11:40:02.912Z,11.85
2023-07-03T11:45:02.002Z,12.13
2023-07-03T11:50:02.205Z,9.70
2023-07-03T11:55:02.316Z,12.90
2023-07-03T12:00:02.529Z,11.20
2023-07-03T12:05:02.679Z,6.53
2023-07-03T12:10:02.852Z,13.18
2023-07-03T12:15:03.115Z,15.15
2023-07-03T12:20:12.540Z,0
2023-07-03T12:25:02.618Z,11.27
2023-07-03T12:30:02.938Z,9.68
2023-07-03T12:35:02.083Z,9.10
2023-07-03T12:40:02.198Z,12.65
2023-07-03T12:45:02.341Z,10.07
2023-07-03T12:50:02.494Z,9.48
2023-07-03T12:55:14.627Z,12.80
2023-07-03T13:00:02.612Z,7.47
2023-07-03T13:05:02.733Z,5.88
2023-07-03T13:10:03.008Z,10.75
2023-07-03T13:15:02.397Z,7.82
2023-07-03T13:20:02.410Z,6.75
2023-07-03T13:25:02.479Z,6.90
2023-07-03T13:30:02.584Z,8.07
2023-07-03T13:35:02.709Z,7.82
2023-07-03T13:40:03.409Z,7.88
2023-07-03T13:45:02.812Z,5.47
2023-07-03T13:50:02.877Z,6.40
2023-07-03T13:55:03.009Z,7.72
2023-07-03T14:00:02.142Z,5.22
2023-07-03T14:05:02.271Z,6.28
2023-07-03T14:10:02.378Z,7.15
2023-07-03T14:15:02.419Z,6.55
2023-07-03T14:20:02.586Z,5.38
2023-07-03T14:25:02.663Z,5.20
2023-07-03T14:30:02.709Z,8.45
2023-07-03T14:35:02.821Z,8.80
2023-07-03T14:40:02.861Z,9.65
2023-07-03T14:45:02.888Z,6.63
2023-07-03T14:50:02.966Z,5.90
2023-07-03T14:55:02.060Z,9.85
2023-07-03T15:00:02.258Z,6.28
2023-07-03T15:05:02.319Z,6.45
2023-07-03T15:10:03.480Z,11.95
2023-07-03T15:15:02.595Z,4.75
2023-07-03T15:20:02.665Z,5.35
2023-07-03T15:25:02.788Z,6.50
2023-07-03T15:30:02.923Z,11.00
2023-07-03T15:35:03.039Z,8.32
2023-07-03T15:40:02.138Z,5.93
2023-07-03T15:45:02.201Z,9.70
2023-07-03T15:50:02.219Z,7.68
2023-07-03T15:55:02.386Z,5.80
2023-07-03T16:00:02.518Z,6.70
2023-07-03T16:05:02.898Z,5.65
2023-07-03T16:10:02.978Z,8.50
2023-07-03T16:15:02.079Z,8.43
2023-07-03T16:20:02.108Z,7.90
2023-07-03T16:25:02.310Z,6.30
2023-07-03T16:30:02.409Z,8.43
2023-07-03T16:35:02.407Z,7.50
2023-07-03T16:40:02.565Z,7.22
2023-07-03T16:45:02.637Z,8.20
2023-07-03T16:50:02.735Z,5.00
2023-07-03T16:55:02.898Z,7.90
2023-07-03T17:00:02.993Z,5.55
2023-07-03T17:05:02.109Z,5.88
2023-07-03T17:10:02.165Z,4.80
2023-07-03T17:15:02.261Z,9.43
2023-07-03T17:20:02.454Z,4.50
2023-07-03T17:25:02.688Z,7.40
2023-07-03T17:30:02.812Z,5.32
2023-07-03T17:35:02.841Z,4.65
2023-07-03T17:40:02.943Z,4.82
2023-07-03T17:45:01.967Z,7.03
2023-07-03T17:50:02.112Z,7.47
2023-07-03T17:55:02.154Z,4.95
2023-07-03T18:00:02.233Z,3.58
2023-07-03T18:05:02.300Z,4.35
2023-07-03T18:10:04.157Z,8.45
2023-07-03T18:15:02.665Z,5.85
2023-07-03T18:20:02.741Z,5.80
2023-07-03T18:25:03.107Z,7.63
2023-07-03T18:30:02.157Z,6.43
2023-07-03T18:35:02.229Z,7.85
2023-07-03T18:40:02.328Z,3.78
2023-07-03T18:45:02.392Z,8.20
2023-07-03T18:50:02.425Z,3.75
2023-07-03T18:55:02.542Z,6.22
2023-07-03T19:00:02.590Z,8.23
2023-07-03T19:05:05.404Z,8.38
2023-07-03T19:10:16.725Z,4.53
2023-07-03T19:15:02.160Z,5.50
2023-07-03T19:20:02.260Z,4.55
2023-07-03T19:25:02.454Z,5.78
2023-07-03T19:30:02.571Z,5.88
2023-07-03T19:35:02.623Z,9.88
2023-07-03T19:40:02.764Z,5.53
2023-07-03T19:45:02.796Z,4.65
2023-07-03T19:50:03.002Z,6.78
2023-07-03T19:55:02.119Z,5.15
2023-07-03T20:00:02.228Z,4.70
2023-07-03T20:05:02.296Z,5.78
2023-07-03T20:10:02.339Z,8.88
2023-07-03T20:15:02.345Z,5.80
2023-07-03T20:20:02.394Z,6.28
2023-07-03T20:25:02.429Z,10.43
2023-07-03T20:30:02.553Z,8.20
2023-07-03T20:35:02.714Z,7.90
2023-07-03T20:40:02.878Z,7.97
2023-07-03T20:45:03.000Z,7.93
2023-07-03T20:50:02.124Z,7.30
2023-07-03T20:55:02.273Z,7.97
2023-07-03T21:00:02.453Z,3.95
2023-07-03T21:05:22.614Z,6.13
2023-07-03T21:10:08.636Z,5.43
2023-07-03T21:15:08.664Z,3.95
2023-07-03T21:20:08.727Z,3.42
2023-07-03T21:25:08.739Z,7.32
2023-07-03T21:30:08.759Z,5.32
2023-07-03T21:35:08.763Z,3.33
2023-07-03T21:40:08.791Z,8.45
2023-07-03T21:45:08.862Z,6.28
2023-07-03T21:50:08.890Z,7.50
2023-07-03T21:55:08.890Z,6.35
2023-07-03T22:00:08.902Z,6.03
2023-07-03T22:05:08.870Z,6.50
2023-07-03T22:10:08.867Z,4.60
2023-07-03T22:15:08.830Z,4.80
2023-07-03T22:20:08.920Z,8.48
2023-07-03T22:25:08.952Z,5.47
2023-07-03T22:30:07.909Z,10.57
2023-07-03T22:35:08.912Z,6.97
2023-07-03T22:40:08.890Z,6.18
2023-07-03T22:45:08.872Z,5.70
2023-07-03T22:50:08.858Z,2.80
2023-07-03T22:55:08.789Z,1.15
2023-07-03T23:01:19.331Z,1.95
2023-07-03T23:05:08.285Z,1.83
2023-07-03T23:10:08.549Z,2.35
2023-07-03T23:15:08.507Z,1.10
2023-07-03T23:20:08.667Z,1.63
2023-07-03T23:25:08.627Z,2.63
2023-07-03T23:30:08.627Z,1.85
2023-07-03T23:35:08.605Z,1.50
2023-07-03T23:40:08.590Z,2.90
2023-07-03T23:45:08.607Z,1.35
2023-07-03T23:50:10.112Z,3.00
2023-07-03T23:55:08.094Z,2.78
